AirNav   Get $300 off a Bose A20
 
 566 users online  

MO1 Richland Municipal Airport
Richland, Missouri, USA

GOING TO RICHLAND?


FAA INFORMATION EFFECTIVE 25 APRIL 2019

Location

FAA Identifier: MO1
Lat/Long: 37-52-29.6000N / 092-24-29.0000W
37-52.493333N / 092-24.483333W
37.8748889 / -92.4080556
(estimated)
Elevation: 1110 ft. / 338.3 m (surveyed)
Variation: 04E (1985)
From city: 1 mile N of RICHLAND, MO
Time zone: UTC -5 (UTC -6 during Standard Time)
Zip code: 65556

Airport Operations

Airport use: Open to the public
Activation date: 10/1970
Control tower: no
ARTCC: KANSAS CITY CENTER
FSS: COLUMBIA FLIGHT SERVICE STATION
NOTAMs facility: COU (NOTAM-D service available)
Attendance: UNATNDD
Wind indicator: lighted
Segmented circle: yes
Lights: DUSK-DAWN. ACTVT LIRL RY 14/32 - CTAF.

Airport Communications

CTAF: 122.9
WX AWOS-3 at OZS (15 nm NW): 120.225 (573-317-0412)
WX AWOS-3PT at AIZ (15 nm NW): 135.325 (573-348-0847)
WX ASOS at TBN (15 nm SE): 118.7
WX AWOS-3PT at LBO (18 nm SW): 118.975 (417-533-3419)

Nearby radio navigation aids

VOR radial/distance  VOR name  Freq  Var
SHYr137/13.5SUNSHINE VOR/DME108.4000E
TBNr299/(15.0)FORNEY VOR110.0003E
MAPr294/34.0MAPLES VORTAC113.4006E
VIHr237/37.1VICHY VOR/DME117.7006E

 
NDB name  Hdg/Dist  Freq  Var  ID
BUCKHORN303/17.939103EBHN -... .... -.

Airport Services

Bottled oxygen: NONE
Bulk oxygen: NONE

Runway Information

Runway 14/32

Dimensions: 3000 x 60 ft. / 914 x 18 m
Surface: asphalt, in good condition
Weight bearing capacity: 
Single wheel: 6.0
Runway edge lights: low intensity
RUNWAY 14  RUNWAY 32
Latitude: 37-52.681333N37-52.306667N
Longitude: 092-24.686167W092-24.279333W
Elevation: 1110.0 ft.1110.0 ft.
Traffic pattern: leftleft
Displaced threshold: 170 ft.130 ft.
Markings: basic, in good conditionbasic, in good condition
Obstructions: 25 ft. trees, 201 ft. from runway, 125 ft. both sides of centerline
RWY 14 +15-35 FT TREES 75-200 FT FM RWY END L & R.
25 ft. trees, 202 ft. from runway, 125 ft. both sides of centerline
RWY 32 +1-6 FT GND; TREE, 35 FT, 55 FT FM RWY END 70 FT R; TREES 18-35 FT, 180-200 FT FM RWY END, L & R.

Airport Ownership and Management from official FAA records

Ownership: Publicly-owned
Owner: CITY OF RICHLAND
PO BOX 798
RICHLAND, MO 65556
Phone 573-765-4421
Manager: GREG STRATMAN
PO BOX 798
RICHLAND, MO 65556
Phone (573) 765-3532
MAYOR

Airport Operational Statistics

Aircraft operations: avg 30/month *
89% transient general aviation
11% military
* for 12-month period ending 31 December 2015

Additional Remarks

A96 ULTRALIGHT ACTIVITY ON AND INVOF ARPT.
GOLFERS CROSSING RY APPROXIMATELY 800 FT NORTHWEST OF RY 32 THR.
WILDLIFE ON & INVOF ARPT.

Instrument Procedures

There are no published instrument procedures at MO1.

Some nearby airports with instrument procedures:

KOZS - Camdenton Memorial-Lake Regional Airport (15 nm NW)
KAIZ - Lee C Fine Memorial Airport (15 nm NW)
KTBN - Waynesville-St. Robert Regional Airport-Forney Field (15 nm SE)
KLBO - Floyd W Jones Lebanon Airport (18 nm SW)
K15 - Grand Glaize-Osage Beach Airport (19 nm NW)
 
Loc | Ops | Rwys | IFR | FBO | Links
Com | Nav | Svcs | Stats | Notes

Kansas City Aviation Department
 
Area around MO1 (Richland Municipal Airport)
 
Road maps at: MapQuest Bing Google
 
Aerial photo
WARNING: Photo may not be current or correct
Aerial photo of MO1 (Richland Municipal Airport)
Do you have a better or more recent aerial photo of Richland Municipal Airport that you would like to share? If so, please send us your photo.

 
Sectional chart

 
Airport distance calculator
Flying to Richland Municipal Airport? Find the distance to fly.

From to MO1

Sunrise and sunset
Times for 25-Apr-2019
 Local
(UTC-5)
 Zulu
(UTC)
Morning civil twilight05:5410:54
Sunrise06:2211:22
Sunset19:5300:53
Evening civil twilight20:2101:21

Current date and time
Zulu (UTC)  25-Apr-2019 10:23:22
Local (UTC-5)  25-Apr-2019 05:23:22
 
METAR
KOZS 
15nm NW 
250955Z AUTO 00000KT 3/4SM BR BKN005 OVC049 13/12 A2978 RMK AO2
KAIZ 
15nm NW 
250956Z AUTO 00000KT 1/2SM FG OVC001 13/13 A2978 RMK AO2 SLP081 T01330133
KTBN 
17nm SE 
250957Z AUTO 00000KT 3SM BR FEW002 15/15 A2975 RMK AO2 DZE55 SLP073 $
KLBO 
18nm SW 
250955Z AUTO 04003KT 1 1/4SM BR OVC003 15/14 A2978 RMK AO2
TAF
NOTAMs
Click for the latest NOTAMs
NOTAMs are issued by the DoD/FAA and will open in a separate window not controlled by AirNav.

 

 
 

Would you like to see your business listed on this page?

 If your business provides an interesting product or service to pilots, flight crews, aircraft, or users of the Richland Municipal Airport, you should consider listing it here.  To start the listing process, click on the button below
 
Add a business
 

Other Pages about Richland Municipal Airport

Update a link
 
Copyright © AirNav, LLC. All rights reserved. Privacy Policy  Contact